Time;durP1;ratioP1;P1;durP2;ratioP2;P2;SDS_P1;SDS_P2;PMS_P1;PMS_P2;Temp;Humidity;BMP_temperature;BMP_pressure;BME280_temperature;BME280_humidity;BME280_pressure;Samples;Min_cycle;Max_cycle;Signal;HPM_P1;HPM_P2
2021/01/07 00:01:51;;;;;;;4.60;1.83;;;;;;;26.09;29.10;96244.06;5042946;28;20041;-38
2021/01/07 00:04:17;;;;;;;4.65;1.38;;;;;;;26.10;29.00;96240.50;5040941;28;20567;-42
2021/01/07 00:06:42;;;;;;;5.72;1.77;;;;;;;26.14;29.06;96238.50;5038945;28;20036;-41
2021/01/07 00:09:08;;;;;;;5.88;1.95;;;;;;;26.12;28.84;96232.53;5042686;28;20047;-41
2021/01/07 00:11:34;;;;;;;4.22;1.80;;;;;;;26.07;29.02;96227.56;5043572;28;20029;-42
2021/01/07 00:14:00;;;;;;;3.35;1.52;;;;;;;26.14;29.10;96234.13;5043315;28;20047;-41
2021/01/07 00:16:25;;;;;;;3.40;1.63;;;;;;;26.15;28.92;96237.56;5041220;28;20072;-43
2021/01/07 00:18:51;;;;;;;3.83;1.70;;;;;;;26.16;28.87;96234.03;5019711;28;20413;-42
2021/01/07 00:21:16;;;;;;;4.07;1.58;;;;;;;26.14;28.94;96243.75;5024159;28;20051;-43
2021/01/07 00:23:42;;;;;;;2.65;1.42;;;;;;;26.16;28.90;96241.91;5032897;28;20052;-42
2021/01/07 00:26:07;;;;;;;3.60;1.70;;;;;;;26.18;28.94;96234.75;5039082;28;20456;-40
2021/01/07 00:28:33;;;;;;;4.03;1.50;;;;;;;26.18;28.67;96234.75;5015249;28;20044;-43
2021/01/07 00:30:58;;;;;;;2.58;1.55;;;;;;;26.19;28.86;96236.44;5052869;28;20102;-42
2021/01/07 00:33:24;;;;;;;4.13;1.63;;;;;;;26.21;28.88;96239.81;5035418;28;20098;-40
2021/01/07 00:35:49;;;;;;;3.17;1.40;;;;;;;26.05;29.08;96229.44;5035805;28;20028;-42
2021/01/07 00:38:15;;;;;;;2.78;1.52;;;;;;;26.10;28.83;96243.94;4997344;28;20043;-42
2021/01/07 00:40:41;;;;;;;3.38;1.60;;;;;;;26.16;28.82;96241.91;5035588;28;20036;-41
2021/01/07 00:43:06;;;;;;;4.28;1.80;;;;;;;26.09;29.01;96244.91;5030198;28;20640;-42
2021/01/07 00:45:32;;;;;;;3.53;1.63;;;;;;;26.15;29.15;96241.03;5039458;28;20045;-41
2021/01/07 00:47:58;;;;;;;5.78;1.60;;;;;;;26.17;28.83;96243.56;5035046;28;20033;-40
2021/01/07 00:50:24;;;;;;;4.57;1.52;;;;;;;26.13;28.75;96234.22;5045083;28;20421;-44
2021/01/07 00:52:50;;;;;;;2.83;1.50;;;;;;;26.19;28.86;96239.06;5038769;28;20560;-41
2021/01/07 00:55:16;;;;;;;2.05;1.15;;;;;;;26.15;28.87;96235.78;5041593;28;20127;-40
2021/01/07 00:57:42;;;;;;;3.58;1.63;;;;;;;26.15;28.95;96234.94;5007864;28;20048;-39
2021/01/07 01:00:08;;;;;;;2.63;1.25;;;;;;;26.15;28.71;96229.69;5034808;28;20048;-43
2021/01/07 01:02:34;;;;;;;3.35;1.33;;;;;;;26.13;28.72;96227.19;5019146;28;20045;-43
2021/01/07 01:04:59;;;;;;;3.60;1.50;;;;;;;26.10;28.84;96227.38;5052393;28;20619;-41
2021/01/07 01:07:25;;;;;;;2.58;1.45;;;;;;;26.10;28.85;96233.44;5039070;28;20044;-42
2021/01/07 01:09:51;;;;;;;3.25;1.60;;;;;;;26.09;28.81;96236.19;5043814;28;20045;-38
2021/01/07 01:12:16;;;;;;;2.75;1.23;;;;;;;26.06;29.06;96231.97;5041117;28;20048;-45
2021/01/07 01:14:42;;;;;;;2.15;1.15;;;;;;;26.09;28.86;96229.13;5034558;28;20049;-40
2021/01/07 01:17:08;;;;;;;4.10;1.33;;;;;;;26.07;28.74;96224.94;5036198;28;20087;-43
2021/01/07 01:19:33;;;;;;;2.58;1.50;;;;;;;26.13;28.88;96228.94;5038486;28;20044;-43
2021/01/07 01:21:59;;;;;;;4.63;1.63;;;;;;;26.05;29.00;96217.16;5038791;28;20051;-41
2021/01/07 01:24:25;;;;;;;2.45;1.20;;;;;;;26.16;28.79;96226.16;5016200;28;20052;-42
2021/01/07 01:26:57;;;;;;;2.70;1.40;;;;;;;26.18;28.69;96237.38;5035427;28;20037;-42
2021/01/07 01:29:22;;;;;;;;;;;;;;;26.18;28.63;96240.00;5050515;28;20379;-37
2021/01/07 01:31:47;;;;;;;2.40;1.42;;;;;;;26.16;28.63;96239.28;5021918;28;19928;-41
2021/01/07 01:34:14;;;;;;;1.73;1.13;;;;;;;26.14;28.52;96243.75;5044494;28;20481;-43
2021/01/07 01:36:40;;;;;;;1.73;1.30;;;;;;;26.10;28.73;96243.13;5046048;28;20037;-40
2021/01/07 01:39:06;;;;;;;2.17;1.10;;;;;;;26.08;28.83;96240.59;5046696;28;20064;-40
2021/01/07 01:41:31;;;;;;;3.00;1.40;;;;;;;26.08;28.76;96243.22;5047926;28;20037;-39
2021/01/07 01:43:57;;;;;;;2.17;1.10;;;;;;;26.10;28.75;96246.56;5039395;28;20602;-38
2021/01/07 01:46:22;;;;;;;1.42;0.95;;;;;;;26.08;28.77;96243.22;5037406;28;20048;-43
2021/01/07 01:48:48;;;;;;;3.35;1.50;;;;;;;26.04;29.07;96243.50;5052824;28;20174;-44
2021/01/07 01:51:14;;;;;;;3.38;1.30;;;;;;;26.08;28.82;96251.09;5045737;28;20571;-40
2021/01/07 01:53:40;;;;;;;2.67;1.27;;;;;;;26.09;28.81;96250.16;5044764;28;20106;-43
2021/01/07 01:56:06;;;;;;;2.03;1.23;;;;;;;26.07;28.67;96252.03;5040347;28;20643;-37
2021/01/07 01:58:35;;;;;;;2.03;1.20;;;;;;;26.06;29.13;96247.72;5039229;28;20045;-41
2021/01/07 02:01:02;;;;;;;1.48;1.10;;;;;;;26.09;28.96;96251.94;5037869;28;20386;-44
2021/01/07 02:03:27;;;;;;;3.08;1.17;;;;;;;26.08;28.75;96251.09;5035304;28;20037;-42
2021/01/07 02:05:53;;;;;;;2.40;1.15;;;;;;;26.09;28.78;96251.94;5037776;28;20484;-42
2021/01/07 02:08:18;;;;;;;1.98;1.15;;;;;;;26.10;28.69;96249.19;5006657;28;20037;-40
2021/01/07 02:10:43;;;;;;;2.17;1.10;;;;;;;26.12;28.63;96249.09;5026268;28;20048;-43
2021/01/07 02:13:09;;;;;;;2.55;1.02;;;;;;;26.09;28.75;96247.53;5026424;28;20063;-41
2021/01/07 02:15:41;;;;;;;2.45;1.30;;;;;;;26.07;28.78;96246.78;5042624;28;20028;-40
2021/01/07 02:18:10;;;;;;;1.77;1.10;;;;;;;26.07;28.74;96252.03;5040782;28;20045;-41
2021/01/07 02:20:38;;;;;;;1.48;0.90;;;;;;;26.08;28.65;96255.50;5044597;28;20047;-37
2021/01/07 02:23:03;;;;;;;1.95;1.05;;;;;;;26.06;28.64;96245.09;5042686;28;20128;-41
2021/01/07 02:25:29;;;;;;;2.45;1.20;;;;;;;26.07;28.65;96248.56;5044176;28;20049;-42
2021/01/07 02:27:55;;;;;;;1.88;1.17;;;;;;;26.07;28.65;96249.41;5035937;28;20049;-43
2021/01/07 02:30:20;;;;;;;2.08;1.10;;;;;;;26.06;28.86;96252.97;5033364;28;20851;-42
2021/01/07 02:32:46;;;;;;;2.00;1.10;;;;;;;26.08;28.66;96258.13;5019755;28;20055;-40
2021/01/07 02:35:12;;;;;;;3.53;1.08;;;;;;;26.10;28.91;96253.63;5020694;28;20044;-41
2021/01/07 02:37:41;;;;;;;1.48;1.10;;;;;;;26.13;28.52;96257.84;5049630;28;20086;-40
2021/01/07 02:40:07;;;;;;;1.70;1.15;;;;;;;26.14;28.60;96251.63;5049047;28;20041;-42
2021/01/07 02:42:33;;;;;;;2.28;1.10;;;;;;;26.09;28.75;96247.53;5034903;28;20079;-40
2021/01/07 02:44:59;;;;;;;1.38;0.88;;;;;;;26.12;28.88;96250.91;5041809;28;20106;-41
2021/01/07 02:47:24;;;;;;;1.67;1.00;;;;;;;26.13;28.64;96247.34;5040584;28;20457;-41
2021/01/07 02:49:50;;;;;;;2.05;1.20;;;;;;;26.13;28.48;96242.09;5032927;28;20671;-42
2021/01/07 02:52:16;;;;;;;1.23;0.80;;;;;;;26.13;28.77;96242.09;5044336;28;20052;-44
2021/01/07 02:54:42;;;;;;;1.95;0.82;;;;;;;26.13;28.68;96236.84;5045343;28;20068;-39
2021/01/07 02:57:08;;;;;;;1.60;1.00;;;;;;;26.09;28.71;96237.00;5041109;28;20058;-42
2021/01/07 02:59:34;;;;;;;2.00;0.90;;;;;;;26.07;28.63;96236.28;5046731;28;20067;-41
2021/01/07 03:02:01;;;;;;;4.88;1.00;;;;;;;26.05;28.71;96232.91;5040345;28;20461;-43
2021/01/07 03:04:26;;;;;;;1.27;0.77;;;;;;;26.03;28.57;96232.16;5043459;28;20041;-40
2021/01/07 03:06:52;;;;;;;1.02;0.80;;;;;;;26.05;28.58;96237.31;5041430;28;20052;-40
2021/01/07 03:09:17;;;;;;;1.55;0.90;;;;;;;25.99;28.86;96235.91;5043747;28;20044;-40
2021/01/07 03:11:43;;;;;;;1.67;0.80;;;;;;;26.02;28.77;96241.00;5048122;28;20702;-39
2021/01/07 03:14:09;;;;;;;1.23;0.95;;;;;;;26.04;28.95;96239.09;5025171;28;20040;-43
2021/01/07 03:16:34;;;;;;;3.17;1.08;;;;;;;25.96;28.44;96225.59;5041358;28;20498;-41
2021/01/07 03:19:00;;;;;;;1.02;0.73;;;;;;;26.02;28.73;96233.13;5039810;28;20041;-39
2021/01/07 03:21:26;;;;;;;1.35;0.88;;;;;;;26.03;28.59;96232.16;5047160;28;20490;-43
2021/01/07 03:23:52;;;;;;;1.02;0.80;;;;;;;26.02;28.82;96235.75;5033915;28;20052;-38
2021/01/07 03:26:17;;;;;;;1.25;0.90;;;;;;;25.97;28.42;96222.03;5043370;28;20627;-40
2021/01/07 03:28:43;;;;;;;1.60;1.10;;;;;;;26.04;28.60;96227.72;5040096;28;20052;-41
2021/01/07 03:31:09;;;;;;;1.30;0.80;;;;;;;26.03;28.77;96232.16;5041935;28;20064;-43
2021/01/07 03:33:35;;;;;;;1.08;0.77;;;;;;;26.00;28.76;96224.47;5039192;28;20457;-40
2021/01/07 03:36:00;;;;;;;1.50;0.90;;;;;;;26.04;28.47;96233.84;5052126;28;20044;-37
2021/01/07 03:38:26;;;;;;;1.77;0.73;;;;;;;26.03;28.91;96228.69;5044465;28;20072;-40
2021/01/07 03:40:52;;;;;;;2.40;0.90;;;;;;;26.05;28.79;96219.78;5034218;28;20037;-41
2021/01/07 03:43:17;;;;;;;2.00;1.10;;;;;;;26.06;28.61;96218.00;5045744;28;20175;-42
2021/01/07 03:45:43;;;;;;;1.73;0.88;;;;;;;26.05;28.53;96222.41;5034166;28;20520;-40
2021/01/07 03:48:09;;;;;;;3.17;0.77;;;;;;;25.99;28.66;96217.53;5045275;28;20489;-42
2021/01/07 03:50:35;;;;;;;1.00;0.60;;;;;;;26.02;28.75;96214.72;5038851;28;20036;-42
2021/01/07 03:53:00;;;;;;;1.23;0.90;;;;;;;26.00;28.64;96205.28;5044643;28;20049;-39
2021/01/07 03:55:26;;;;;;;1.55;0.77;;;;;;;25.96;28.61;96220.34;5022928;28;20040;-39
2021/01/07 03:57:52;;;;;;;2.38;1.10;;;;;;;25.93;28.54;96210.88;5039289;28;20049;-41
2021/01/07 04:00:22;;;;;;;1.45;0.65;;;;;;;25.96;28.71;96220.34;5037432;28;20558;-41
2021/01/07 04:02:48;;;;;;;2.03;0.68;;;;;;;25.92;28.78;96214.47;5030400;28;20080;-40
2021/01/07 04:05:14;;;;;;;0.73;0.68;;;;;;;25.94;28.99;96217.00;5038672;28;20697;-44
2021/01/07 04:07:40;;;;;;;0.85;0.70;;;;;;;25.85;28.78;96207.06;5042488;28;20045;-41
2021/01/07 04:10:06;;;;;;;1.80;0.80;;;;;;;25.94;28.63;96214.38;5044201;28;20056;-37
2021/01/07 04:12:32;;;;;;;0.88;0.70;;;;;;;25.94;28.67;96217.81;5043283;28;20448;-43
2021/01/07 04:14:58;;;;;;;0.82;0.65;;;;;;;25.95;28.80;96216.03;5035175;28;20877;-42
2021/01/07 04:17:24;;;;;;;1.33;0.75;;;;;;;25.95;28.62;96216.03;5041551;28;20063;-39
2021/01/07 04:19:50;;;;;;;1.15;0.70;;;;;;;25.96;28.74;96213.34;5040980;28;20079;-42
2021/01/07 04:22:16;;;;;;;0.90;0.70;;;;;;;25.96;28.66;96215.09;5044269;28;20045;-44
2021/01/07 04:24:42;;;;;;;1.05;0.70;;;;;;;25.97;28.70;96219.41;5044025;28;20055;-39
2021/01/07 04:27:07;;;;;;;2.42;0.70;;;;;;;25.97;28.71;96206.28;5036178;28;21343;-41
2021/01/07 04:29:33;;;;;;;1.52;0.80;;;;;;;25.98;28.83;96208.00;5044343;28;20128;-42
2021/01/07 04:31:58;;;;;;;1.42;0.77;;;;;;;25.95;28.70;96198.53;5039808;28;20036;-41
2021/01/07 04:35:07;;;;;;;0.75;0.70;;;;;;;25.96;28.87;96207.22;5038280;28;20045;-43
2021/01/07 04:37:42;;;;;;;0.73;0.60;;;;;;;26.03;28.88;96205.91;5025546;28;20044;-41
2021/01/07 04:40:08;;;;;;;1.17;0.88;;;;;;;26.08;28.57;96206.44;5024801;28;20055;-38
2021/01/07 04:42:33;;;;;;;0.88;0.60;;;;;;;26.04;28.62;96204.97;5044183;28;20053;-39
2021/01/07 04:44:59;;;;;;;0.82;0.70;;;;;;;26.00;28.72;96206.09;5025435;28;20047;-40
2021/01/07 04:47:25;;;;;;;3.35;1.13;;;;;;;26.05;28.64;96211.88;5008398;28;20042;-40
2021/01/07 04:49:51;;;;;;;1.25;1.00;;;;;;;26.05;28.54;96213.69;5022228;28;20068;-42
2021/01/07 04:52:17;;;;;;;1.13;0.80;;;;;;;26.07;28.55;96206.53;5040833;28;20631;-39
2021/01/07 04:54:46;;;;;;;2.08;0.73;;;;;;;26.06;28.53;96212.75;5041983;28;20025;-42
2021/01/07 04:57:12;;;;;;;1.92;0.90;;;;;;;26.07;28.67;96212.66;5018250;28;20124;-41
2021/01/07 04:59:38;;;;;;;1.92;0.80;;;;;;;26.04;28.55;96201.47;5039647;28;20576;-40
2021/01/07 05:02:04;;;;;;;1.08;0.75;;;;;;;26.05;28.57;96206.63;5044609;28;20044;-42
2021/01/07 05:04:30;;;;;;;1.45;0.80;;;;;;;26.05;28.64;96213.69;5038919;28;20097;-42
2021/01/07 05:06:55;;;;;;;1.38;0.90;;;;;;;26.05;28.51;96204.00;5041778;28;20025;-40
2021/01/07 05:09:21;;;;;;;0.75;0.73;;;;;;;26.02;28.62;96214.72;5028140;28;20032;-39
2021/01/07 05:11:47;;;;;;;0.90;0.70;;;;;;;25.98;28.71;96208.00;5039857;28;20037;-41
2021/01/07 05:14:13;;;;;;;1.60;1.17;;;;;;;25.91;28.57;96206.69;5033440;28;20723;-39
2021/01/07 05:16:40;;;;;;;1.05;0.70;;;;;;;25.95;28.64;96202.91;5033511;28;20040;-43
2021/01/07 05:19:07;;;;;;;1.25;0.82;;;;;;;25.97;28.65;96203.66;5042288;28;20041;-39
2021/01/07 05:21:33;;;;;;;1.88;0.80;;;;;;;25.97;28.95;96198.41;5040769;28;20592;-43
2021/01/07 05:23:59;;;;;;;1.63;0.88;;;;;;;25.92;28.71;96192.59;5036585;28;20039;-39
2021/01/07 05:26:25;;;;;;;0.90;0.80;;;;;;;25.96;28.63;96207.22;5034214;28;20409;-43
2021/01/07 05:28:52;;;;;;;0.60;0.50;;;;;;;25.96;28.81;96204.59;5035756;28;20044;-43
2021/01/07 05:31:27;;;;;;;1.45;0.77;;;;;;;25.96;28.51;96207.22;5036774;28;20041;-39
2021/01/07 05:33:55;;;;;;;1.40;0.57;;;;;;;25.91;28.75;96199.66;5054281;28;20121;-43
2021/01/07 05:36:22;;;;;;;1.08;0.70;;;;;;;25.89;28.78;96203.31;5039134;28;20076;-43
2021/01/07 05:38:49;;;;;;;1.92;0.80;;;;;;;25.88;28.75;96204.25;5043028;28;20037;-40
2021/01/07 05:41:14;;;;;;;1.30;0.95;;;;;;;25.90;28.69;96197.13;5035032;28;20060;-39
2021/01/07 05:43:40;;;;;;;1.15;0.82;;;;;;;25.86;28.88;96204.34;5026016;28;20123;-42
2021/01/07 05:46:10;;;;;;;1.33;0.70;;;;;;;25.84;28.86;96208.84;5035005;28;20041;-39
2021/01/07 05:48:36;;;;;;;1.95;1.13;;;;;;;25.85;28.81;96207.06;5036052;28;20051;-41
2021/01/07 05:51:05;;;;;;;0.77;0.77;;;;;;;25.86;28.77;96203.50;5041724;28;20037;-42
2021/01/07 05:53:31;;;;;;;1.10;0.88;;;;;;;25.80;28.81;96200.34;5044259;28;20039;-40
2021/01/07 05:55:57;;;;;;;1.63;0.80;;;;;;;25.84;28.98;96206.22;5041411;28;20045;-43
2021/01/07 05:58:23;;;;;;;1.63;0.70;;;;;;;25.82;28.74;96198.44;5033391;28;20045;-41
2021/01/07 06:00:48;;;;;;;1.27;0.88;;;;;;;25.83;28.64;96196.66;5031959;28;20041;-41
2021/01/07 06:03:14;;;;;;;0.93;0.70;;;;;;;25.83;28.67;96200.13;5019610;28;20038;-43
2021/01/07 06:05:40;;;;;;;1.13;0.73;;;;;;;25.87;28.83;96199.94;5035537;28;20072;-41
2021/01/07 06:08:05;;;;;;;1.17;0.90;;;;;;;25.82;28.84;96202.88;5052687;28;20098;-45
2021/01/07 06:10:31;;;;;;;1.35;0.80;;;;;;;25.83;28.81;96199.28;5030032;28;20044;-39
2021/01/07 06:12:57;;;;;;;1.38;0.75;;;;;;;25.85;28.78;96209.69;5023934;28;20450;-41
2021/01/07 06:15:22;;;;;;;0.60;0.60;;;;;;;25.87;28.69;96206.03;5046167;28;20045;-41
2021/01/07 06:17:48;;;;;;;4.03;0.88;;;;;;;25.90;28.55;96213.69;5033634;28;20047;-41
2021/01/07 06:20:19;;;;;;;1.50;0.88;;;;;;;25.88;28.57;96218.22;5046563;28;20029;-40
2021/01/07 06:22:48;;;;;;;0.80;0.80;;;;;;;25.90;28.66;96215.50;5037303;28;20040;-38
2021/01/07 06:25:14;;;;;;;0.88;0.73;;;;;;;25.87;28.67;96220.94;5045068;28;20070;-41
2021/01/07 06:27:40;;;;;;;0.65;0.60;;;;;;;25.85;28.75;96215.78;5048462;28;20037;-41
2021/01/07 06:30:06;;;;;;;0.98;0.70;;;;;;;25.83;28.74;96218.50;5039751;28;20046;-40
2021/01/07 06:32:32;;;;;;;2.70;1.23;;;;;;;25.76;27.80;96214.59;5036687;28;20044;-42
2021/01/07 06:34:58;;;;;;;3.17;1.75;;;;;;;25.79;27.62;96218.78;5024221;28;20056;-43
2021/01/07 06:37:42;;;;;;;4.95;1.00;;;;;;;25.76;28.46;96219.81;5037610;28;20029;-42
2021/01/07 06:40:09;;;;;;;1.70;1.00;;;;;;;25.78;28.65;96219.75;5045523;28;20029;-45
2021/01/07 06:42:38;;;;;;;0.80;0.80;;;;;;;25.76;28.62;96225.06;5040272;28;20410;-44
2021/01/07 06:45:04;;;;;;;1.17;0.80;;;;;;;25.77;28.50;96216.25;5047188;28;20100;-41
2021/01/07 06:47:30;;;;;;;1.15;0.70;;;;;;;25.76;28.63;96222.44;5048796;28;20045;-38
2021/01/07 06:49:56;;;;;;;1.02;0.80;;;;;;;25.77;28.76;96216.25;5027586;28;20460;-41
2021/01/07 06:52:23;;;;;;;2.88;0.90;;;;;;;25.78;28.71;96217.94;5054445;28;20759;-38
2021/01/07 06:54:49;;;;;;;1.10;0.75;;;;;;;25.78;28.85;96215.31;5047281;28;20086;-41
2021/01/07 06:57:15;;;;;;;1.40;0.85;;;;;;;25.80;28.49;96218.69;5041273;28;20037;-39
2021/01/07 06:59:56;;;;;;;1.23;0.90;;;;;;;25.81;28.59;96217.75;5037717;28;20163;-41
2021/01/07 07:02:22;;;;;;;1.08;0.73;;;;;;;25.81;28.76;96228.25;5051100;28;20041;-36
2021/01/07 07:04:48;;;;;;;1.27;0.80;;;;;;;25.73;28.78;96213.94;5039174;28;20158;-43
2021/01/07 07:07:16;;;;;;;1.10;0.98;;;;;;;25.80;28.89;96228.34;5008900;28;20052;-40
2021/01/07 07:09:44;;;;;;;1.10;0.70;;;;;;;25.77;28.87;96221.50;5046820;28;20029;-43
2021/01/07 07:12:10;;;;;;;0.70;0.70;;;;;;;25.78;28.79;96225.00;5040397;28;20136;-39
2021/01/07 07:14:36;;;;;;;1.50;0.80;;;;;;;25.79;28.67;96227.53;5027026;28;20403;-40
2021/01/07 07:17:06;;;;;;;0.73;0.70;;;;;;;25.80;28.71;96229.19;5036080;28;20091;-41
2021/01/07 07:19:31;;;;;;;1.55;0.73;;;;;;;25.79;28.78;96230.16;5024476;28;20528;-40
2021/01/07 07:22:00;;;;;;;1.02;0.65;;;;;;;25.78;28.84;96228.44;5050857;28;20045;-40
2021/01/07 07:24:45;;;;;;;0.82;0.80;;;;;;;25.81;28.86;96227.41;5042517;28;20044;-39
2021/01/07 07:27:11;;;;;;;1.83;0.90;;;;;;;25.81;29.06;96232.66;5051813;28;20429;-39
2021/01/07 07:29:42;;;;;;;1.48;0.93;;;;;;;25.82;28.79;96235.19;5039038;28;20124;-42
2021/01/07 07:32:29;;;;;;;2.53;1.23;;;;;;;25.86;28.43;96235.00;5042874;28;20618;-45
2021/01/07 07:34:54;;;;;;;4.30;1.02;;;;;;;25.88;28.31;96241.84;5032971;28;20033;-43
2021/01/07 07:37:24;;;;;;;4.78;1.85;;;;;;;25.85;28.33;96243.81;5044079;28;20437;-42
2021/01/07 07:39:50;;;;;;;4.63;2.17;;;;;;;25.81;28.17;96238.75;5044479;28;20058;-42
2021/01/07 07:42:16;;;;;;;9.20;2.13;;;;;;;25.71;28.56;96240.28;5038844;28;20041;-44
2021/01/07 07:44:42;;;;;;;4.93;2.55;;;;;;;25.69;28.14;96248.22;5034648;28;20041;-37
2021/01/07 07:47:07;;;;;;;4.22;1.80;;;;;;;25.67;28.44;96246.66;5031822;28;20033;-40
2021/01/07 07:49:33;;;;;;;8.07;1.60;;;;;;;25.69;28.28;96258.72;5034112;28;20041;-42
2021/01/07 07:51:59;;;;;;;4.28;1.63;;;;;;;25.71;28.64;96256.03;5036509;28;20162;-39
2021/01/07 07:54:24;;;;;;;3.72;2.20;;;;;;;25.68;27.34;96262.31;5031568;28;20037;-43
2021/01/07 07:56:59;;;;;;;3.65;2.95;;;;;;;25.51;26.54;96263.28;5034018;28;20072;-37
2021/01/07 07:59:24;;;;;;;3.65;2.65;;;;;;;25.37;26.46;96261.50;5033490;28;20045;-43
2021/01/07 08:01:53;;;;;;;5.70;2.80;;;;;;;25.20;26.41;96265.09;5032788;28;20037;-41
2021/01/07 08:04:19;;;;;;;4.35;2.83;;;;;;;25.09;26.79;96267.53;5033700;28;20100;-43
2021/01/07 08:06:45;;;;;;;3.17;2.60;;;;;;;24.99;27.13;96265.44;5032971;28;20505;-44
2021/01/07 08:09:12;;;;;;;2.97;2.65;;;;;;;24.89;26.97;96269.50;5034693;28;20219;-43
2021/01/07 08:11:53;;;;;;;4.05;3.10;;;;;;;24.82;26.74;96266.38;5033979;28;20041;-38
2021/01/07 08:14:23;;;;;;;4.32;3.00;;;;;;;24.77;26.64;96268.41;5035823;28;20131;-40
2021/01/07 08:16:56;;;;;;;3.97;2.63;;;;;;;24.56;27.05;96247.75;5032345;28;20032;-42
2021/01/07 08:19:23;;;;;;;4.20;2.90;;;;;;;24.69;27.06;96266.25;5016943;28;20041;-40
2021/01/07 08:21:50;;;;;;;4.72;2.60;;;;;;;24.63;27.29;96263.94;5034791;28;20041;-37
2021/01/07 08:24:16;;;;;;;6.07;2.33;;;;;;;24.65;27.48;96269.97;5032505;28;20049;-41
2021/01/07 08:26:44;;;;;;;4.63;2.58;;;;;;;24.62;27.44;96264.88;5032368;28;20036;-41
2021/01/07 08:29:10;;;;;;;4.03;2.70;;;;;;;24.60;27.75;96272.00;5030215;28;20187;-40
2021/01/07 08:31:39;;;;;;;4.70;3.75;;;;;;;24.61;27.29;96278.94;5016358;28;20573;-36
2021/01/07 08:34:07;;;;;;;6.15;3.08;;;;;;;24.58;27.64;96269.47;5029721;28;20512;-41
2021/01/07 08:36:32;;;;;;;3.95;2.05;;;;;;;24.66;29.12;96280.38;5032477;28;20102;-40
2021/01/07 08:38:58;;;;;;;2.00;1.65;;;;;;;24.83;29.05;96282.94;5032075;28;20036;-42
2021/01/07 08:41:26;;;;;;;2.80;1.80;;;;;;;24.84;29.21;96266.31;5034875;28;20053;-41
2021/01/07 08:43:52;;;;;;;4.15;2.10;;;;;;;25.15;29.00;96288.13;5014834;28;20032;-44
2021/01/07 08:46:20;;;;;;;2.47;1.75;;;;;;;25.26;29.14;96285.75;5033696;28;20683;-43
2021/01/07 08:48:56;;;;;;;2.92;1.48;;;;;;;25.37;28.96;96292.97;5035531;28;20671;-41
2021/01/07 08:51:22;;;;;;;2.40;1.50;;;;;;;25.43;28.84;96282.09;5014909;28;20202;-40
2021/01/07 08:53:54;;;;;;;1.92;1.40;;;;;;;25.54;28.90;96285.84;5033964;28;20510;-41
2021/01/07 08:56:32;;;;;;;3.35;1.25;;;;;;;25.60;28.76;96287.31;5032780;28;20108;-39
2021/01/07 08:59:31;;;;;;;3.38;1.50;;;;;;;25.66;28.84;96285.16;5035216;28;20029;-44
2021/01/07 09:02:05;;;;;;;2.13;1.40;;;;;;;25.68;28.68;96285.06;5019123;28;20045;-37
2021/01/07 09:04:35;;;;;;;2.55;1.50;;;;;;;25.74;28.71;96276.81;5034147;28;20486;-40
2021/01/07 09:07:00;;;;;;;3.15;1.70;;;;;;;25.75;28.79;96275.88;5032436;28;20044;-42
2021/01/07 09:09:26;;;;;;;1.70;1.38;;;;;;;25.80;28.92;96283.47;5033683;28;20528;-38
2021/01/07 09:12:08;;;;;;;1.75;1.20;;;;;;;25.79;28.96;96277.38;5038463;28;20117;-39
2021/01/07 09:14:43;;;;;;;1.73;1.40;;;;;;;25.77;28.82;96276.63;5031839;28;20068;-42
2021/01/07 09:17:08;;;;;;;1.95;1.33;;;;;;;25.76;28.94;96272.31;5011642;28;20082;-43
2021/01/07 09:19:35;;;;;;;2.38;1.52;;;;;;;25.78;28.77;96283.56;5034263;28;20037;-38
2021/01/07 09:22:01;;;;;;;5.82;1.95;;;;;;;25.69;28.27;96286.75;5038881;28;20041;-42
2021/01/07 09:24:36;;;;;;;4.47;1.65;;;;;;;25.61;28.77;96281.09;5037228;28;21038;-42
2021/01/07 09:27:06;;;;;;;3.55;1.70;;;;;;;25.55;28.97;96277.91;5025683;28;20048;-42
2021/01/07 09:29:31;;;;;;;4.13;1.73;;;;;;;25.49;28.72;96280.03;5039811;28;20044;-42
2021/01/07 09:31:57;;;;;;;5.13;1.63;;;;;;;25.51;28.89;96284.25;5034097;28;20029;-39
2021/01/07 09:34:23;;;;;;;2.95;1.45;;;;;;;25.39;28.91;96283.22;5032667;28;20452;-44
2021/01/07 09:36:49;;;;;;;1.73;1.20;;;;;;;25.34;29.23;96285.28;5029583;28;21031;-40
2021/01/07 09:39:15;;;;;;;1.30;1.20;;;;;;;25.44;29.43;96288.22;5037811;28;20103;-41
2021/01/07 09:41:40;;;;;;;1.95;1.48;;;;;;;25.49;29.42;96283.53;5039679;28;20063;-44
2021/01/07 09:44:09;;;;;;;2.67;1.33;;;;;;;25.60;29.44;96282.06;5045254;28;20044;-38
2021/01/07 09:46:35;;;;;;;7.10;1.52;;;;;;;25.71;29.07;96284.88;5038300;28;20041;-45
2021/01/07 09:49:02;;;;;;;3.03;1.80;;;;;;;25.75;28.91;96291.63;5035389;28;20040;-38
2021/01/07 09:51:27;;;;;;;23.33;2.33;;;;;;;25.76;29.00;96279.34;5025088;28;22098;-41
2021/01/07 09:53:53;;;;;;;9.95;2.30;;;;;;;25.69;29.18;96276.25;5034507;28;20052;-41
2021/01/07 09:56:18;;;;;;;18.70;2.58;;;;;;;25.66;29.19;96277.28;5035825;28;20545;-37
2021/01/07 09:58:45;;;;;;;23.38;3.90;;;;;;;25.62;29.33;96270.53;5034751;28;20048;-39
2021/01/07 10:01:11;;;;;;;21.67;4.10;;;;;;;25.61;29.19;96273.25;5031074;28;20116;-41
2021/01/07 10:03:37;;;;;;;23.42;4.57;;;;;;;25.58;29.23;96276.91;5039053;28;20674;-45
2021/01/07 10:06:04;;;;;;;24.05;4.85;;;;;;;25.60;29.20;96274.19;5034885;28;20049;-40
2021/01/07 10:08:31;;;;;;;18.38;4.18;;;;;;;25.45;29.12;96253.97;5039381;28;20462;-42
2021/01/07 10:10:56;;;;;;;25.58;4.50;;;;;;;25.62;29.35;96277.56;5035699;28;20047;-40
2021/01/07 10:13:22;;;;;;;21.70;4.78;;;;;;;25.61;29.35;96278.50;5035412;28;20038;-43
2021/01/07 10:15:48;;;;;;;18.60;4.78;;;;;;;25.60;29.09;96276.81;5038756;28;20632;-41
2021/01/07 10:18:13;;;;;;;30.92;5.93;;;;;;;25.54;29.27;96283.22;5045020;28;20120;-43
2021/01/07 10:20:38;;;;;;;21.35;4.60;;;;;;;25.52;29.30;96278.06;5040461;28;20037;-40
2021/01/07 10:23:05;;;;;;;15.15;4.80;;;;;;;25.53;29.24;96281.56;5044203;28;20029;-40
2021/01/07 10:25:30;;;;;;;16.42;4.03;;;;;;;25.59;29.07;96272.50;5061641;28;20040;-37
2021/01/07 10:27:56;;;;;;;19.38;4.38;;;;;;;25.69;29.10;96281.50;5034581;28;20813;-43
2021/01/07 10:30:21;;;;;;;13.80;3.88;;;;;;;25.64;28.88;96250.31;5034933;28;20032;-39
2021/01/07 10:32:46;;;;;;;36.83;4.57;;;;;;;25.82;28.82;96279.81;5026398;28;20044;-40
2021/01/07 10:35:12;;;;;;;15.52;4.22;;;;;;;25.82;28.85;96263.22;5014618;28;21285;-43
2021/01/07 10:37:38;;;;;;;18.88;4.03;;;;;;;25.92;28.90;96273.97;5029411;28;20453;-43
2021/01/07 10:40:04;;;;;;;17.30;3.63;;;;;;;25.94;29.01;96274.75;5042688;28;20091;-43
2021/01/07 10:42:30;;;;;;;21.13;4.18;;;;;;;25.97;28.88;96266.66;5044332;28;20041;-40
2021/01/07 10:44:56;;;;;;;24.45;4.20;;;;;;;26.05;29.02;96267.03;5037350;28;20712;-37
2021/01/07 10:47:21;;;;;;;13.90;3.80;;;;;;;26.10;29.04;96259.69;5017807;28;20599;-36
2021/01/07 10:49:47;;;;;;;26.75;3.75;;;;;;;26.11;28.87;96265.81;5020457;28;20056;-39
2021/01/07 10:52:17;;;;;;;22.75;3.80;;;;;;;26.13;28.90;96255.22;5045515;28;20391;-38
2021/01/07 10:55:04;;;;;;;18.85;3.42;;;;;;;26.15;28.85;96248.91;5043059;28;20244;-39
2021/01/07 10:57:51;;;;;;;21.15;3.55;;;;;;;26.16;29.07;96244.53;5057460;28;20044;-39
2021/01/07 11:00:47;;;;;;;14.75;3.47;;;;;;;26.16;29.32;96247.16;5031114;28;20818;-39
2021/01/07 11:03:48;;;;;;;19.33;3.95;;;;;;;26.12;29.56;96229.91;5036952;28;20025;-43
2021/01/07 11:06:16;;;;;;;11.13;3.20;;;;;;;26.16;29.32;96236.66;5047125;28;20340;-36
2021/01/07 11:08:47;;;;;;;13.93;3.53;;;;;;;26.19;29.22;96231.19;5026120;28;20033;-42
2021/01/07 11:11:35;;;;;;;10.20;2.92;;;;;;;26.17;29.36;96227.81;5061647;28;20047;-43
2021/01/07 11:14:06;;;;;;;8.27;2.88;;;;;;;26.18;29.16;96230.34;5040230;28;20433;-41
2021/01/07 11:16:52;;;;;;;17.27;2.80;;;;;;;26.18;29.34;96216.38;5039044;28;20068;-36
2021/01/07 11:19:20;;;;;;;9.75;2.80;;;;;;;26.21;29.27;96218.81;5047612;28;20045;-41
2021/01/07 11:21:52;;;;;;;16.95;3.08;;;;;;;26.22;29.12;96209.97;5026189;28;20594;-41
2021/01/07 11:24:19;;;;;;;8.63;2.88;;;;;;;26.21;29.34;96210.94;5043331;28;20417;-44
2021/01/07 11:26:45;;;;;;;11.27;3.10;;;;;;;26.24;29.35;96208.13;5038696;28;20079;-38
2021/01/07 11:29:10;;;;;;;9.02;2.67;;;;;;;26.26;29.56;96206.25;5019807;28;20090;-35
2021/01/07 11:31:38;;;;;;;13.70;3.35;;;;;;;26.29;29.41;96206.06;5038537;28;20040;-42
2021/01/07 11:34:03;;;;;;;11.00;2.75;;;;;;;26.28;29.52;96206.97;5042596;28;20036;-41